Time;durP1;ratioP1;P1;durP2;ratioP2;P2;SDS_P1;SDS_P2;PMS_P1;PMS_P2;Temp;Humidity;BMP_temperature;BMP_pressure;BME280_temperature;BME280_humidity;BME280_pressure;Samples;Min_cycle;Max_cycle;Signal;HPM_P1;HPM_P2
2022/06/19 00:02:27;;;;;;;1.50;0.52;;;27.80;64.30;;;;;;4987710;28;20181;-73
2022/06/19 00:04:55;;;;;;;1.30;1.13;;;27.80;64.70;;;;;;4987654;28;20023;-72
2022/06/19 00:07:22;;;;;;;1.08;0.88;;;27.70;64.90;;;;;;4987529;28;20034;-72
2022/06/19 00:09:49;;;;;;;4.50;1.40;;;27.70;65.20;;;;;;4972215;28;20406;-72
2022/06/19 00:12:18;;;;;;;0.05;0.05;;;27.60;65.50;;;;;;4972471;28;20410;-72
2022/06/19 00:14:44;;;;;;;3.40;1.25;;;27.50;65.90;;;;;;4987236;28;20039;-73
2022/06/19 00:17:09;;;;;;;6.22;1.63;;;27.40;66.10;;;;;;4972476;28;20058;-73
2022/06/19 00:19:36;;;;;;;1.05;0.43;;;27.30;66.20;;;;;;4987366;28;20539;-73
2022/06/19 00:22:03;;;;;;;6.05;2.03;;;27.20;66.50;;;;;;4972531;28;20026;-72
2022/06/19 00:24:32;;;;;;;6.88;1.50;;;27.20;66.90;;;;;;4972665;28;20034;-72
2022/06/19 00:26:58;;;;;;;0.63;0.50;;;26.90;67.10;;;;;;4986990;28;20031;-72
2022/06/19 00:29:26;;;;;;;0.10;0.10;;;26.60;68.10;;;;;;4972028;28;20061;-72
2022/06/19 00:31:51;;;;;;;0.08;0.08;;;26.50;68.40;;;;;;4987305;28;20031;-72
2022/06/19 00:34:17;;;;;;;0.70;0.60;;;26.30;68.60;;;;;;4971703;28;20042;-72
2022/06/19 00:36:45;;;;;;;1.40;1.17;;;26.30;68.60;;;;;;4971791;28;20043;-72
2022/06/19 00:39:11;;;;;;;2.75;1.00;;;26.40;68.30;;;;;;4972075;28;20427;-72
2022/06/19 00:41:39;;;;;;;0.63;0.40;;;26.40;67.90;;;;;;4972100;28;20110;-72
2022/06/19 00:44:09;;;;;;;0.93;0.88;;;26.50;67.60;;;;;;4987371;28;20031;-72
2022/06/19 00:46:59;;;;;;;1.35;1.02;;;26.70;67.00;;;;;;4972488;28;20041;-72
2022/06/19 00:49:40;;;;;;;1.47;1.00;;;26.70;67.00;;;;;;4986648;28;20070;-72
2022/06/19 00:52:16;;;;;;;;;;;26.80;66.80;;;;;;4987065;28;20062;-73
2022/06/19 00:54:52;;;;;;;2.08;1.35;;;26.70;66.80;;;;;;4970919;28;20174;-72
2022/06/19 00:57:19;;;;;;;1.25;1.00;;;26.70;67.10;;;;;;4986225;28;20479;-72
2022/06/19 00:59:54;;;;;;;1.65;0.75;;;26.70;67.10;;;;;;4986279;28;20525;-72
2022/06/19 01:02:20;;;;;;;2.33;1.33;;;26.60;67.20;;;;;;4986204;28;20123;-72
2022/06/19 01:04:52;;;;;;;1.05;0.85;;;26.60;67.10;;;;;;4969480;28;20042;-73
2022/06/19 01:07:24;;;;;;;17.48;2.08;;;26.60;67.20;;;;;;4983473;28;20051;-72
2022/06/19 01:09:51;;;;;;;10.02;1.45;;;26.50;67.40;;;;;;4990225;28;20053;-72
2022/06/19 01:12:19;;;;;;;6.07;2.13;;;26.60;67.30;;;;;;4973862;28;20029;-72
2022/06/19 01:14:46;;;;;;;27.00;1.40;;;26.50;67.40;;;;;;4983926;28;20034;-73
2022/06/19 01:17:14;;;;;;;3.95;1.65;;;26.50;67.60;;;;;;4950963;29;20098;-72
2022/06/19 01:19:43;;;;;;;4.07;1.05;;;26.40;67.60;;;;;;4950805;29;20030;-72
2022/06/19 01:22:16;;;;;;;0.90;0.22;;;26.40;67.80;;;;;;4951095;29;20301;-72
2022/06/19 01:25:04;;;;;;;0.47;0.43;;;26.30;67.90;;;;;;4966372;28;20105;-72
2022/06/19 01:30:20;;;;;;;6.88;1.45;;;26.00;68.50;;;;;;4984128;28;20046;-72
2022/06/19 01:32:49;;;;;;;1.98;1.38;;;26.00;69.00;;;;;;4971726;28;20034;-73
2022/06/19 01:35:18;;;;;;;1.65;0.88;;;25.90;68.80;;;;;;4986357;28;20511;-72
2022/06/19 01:37:45;;;;;;;2.58;1.55;;;25.90;69.00;;;;;;4985790;28;20092;-72
2022/06/19 01:40:19;;;;;;;5.82;1.75;;;25.90;68.90;;;;;;4984773;28;20038;-72
2022/06/19 01:42:45;;;;;;;0.00;0.00;;;25.80;69.00;;;;;;4950882;29;20039;-72
2022/06/19 01:45:12;;;;;;;1.27;0.85;;;25.80;68.90;;;;;;4952147;28;20023;-72
2022/06/19 01:47:40;;;;;;;1.23;1.08;;;25.80;69.20;;;;;;4954678;29;20027;-72
2022/06/19 01:50:13;;;;;;;1.90;1.10;;;25.70;69.20;;;;;;4955831;28;20031;-72
2022/06/19 01:52:39;;;;;;;3.33;2.30;;;25.80;69.00;;;;;;4954480;29;20707;-72
2022/06/19 01:55:15;;;;;;;1.00;0.82;;;25.80;68.90;;;;;;4956370;28;20041;-72
2022/06/19 01:57:45;;;;;;;0.03;0.03;;;25.80;68.90;;;;;;4954667;29;20043;-72
2022/06/19 02:00:17;;;;;;;0.75;0.38;;;25.70;69.10;;;;;;4954565;28;20416;-71
2022/06/19 02:02:50;;;;;;;1.75;1.48;;;25.70;69.10;;;;;;4954492;29;20053;-72
2022/06/19 02:05:15;;;;;;;2.60;1.05;;;25.70;69.30;;;;;;4954390;29;20039;-72
2022/06/19 02:07:41;;;;;;;8.10;3.50;;;25.60;69.20;;;;;;4954240;29;20027;-72
2022/06/19 02:10:07;;;;;;;1.77;0.95;;;25.70;69.00;;;;;;4954177;29;20042;-72
2022/06/19 02:12:35;;;;;;;8.90;1.23;;;25.70;68.80;;;;;;4954332;29;20035;-72
2022/06/19 02:15:05;;;;;;;0.68;0.68;;;25.80;68.90;;;;;;4961297;28;20085;-72
2022/06/19 02:17:42;;;;;;;3.03;1.30;;;25.80;68.80;;;;;;4989442;28;20027;-72
2022/06/19 02:20:10;;;;;;;3.30;1.20;;;25.80;68.70;;;;;;4989205;28;20494;-73
2022/06/19 02:22:36;;;;;;;3.30;1.35;;;25.80;68.80;;;;;;4974858;28;20039;-72
2022/06/19 02:25:03;;;;;;;2.22;1.25;;;25.70;68.80;;;;;;4989641;28;20030;-72
2022/06/19 02:27:32;;;;;;;1.67;0.70;;;25.80;68.90;;;;;;4989168;28;20023;-72
2022/06/19 02:30:01;;;;;;;1.00;0.73;;;25.80;68.90;;;;;;4989049;28;20479;-72
2022/06/19 02:32:39;;;;;;;0.43;0.35;;;25.70;69.10;;;;;;4974414;28;20042;-73
2022/06/19 02:35:11;;;;;;;0.30;0.30;;;25.60;69.50;;;;;;4974864;28;20449;-72
2022/06/19 02:37:43;;;;;;;1.45;1.17;;;25.50;70.40;;;;;;4986818;23;20047;-67
2022/06/19 02:40:56;;;;;;;0.45;0.45;;;25.60;69.70;;;;;;4972559;28;20026;-67
2022/06/19 02:43:30;;;;;;;1.33;0.77;;;25.70;69.00;;;;;;4974451;28;20030;-65
2022/06/19 02:45:56;;;;;;;0.43;0.43;;;25.70;69.50;;;;;;4973303;28;20042;-65
2022/06/19 02:48:30;;;;;;;2.33;1.20;;;25.70;70.10;;;;;;4955153;28;20166;-65
2022/06/19 02:50:59;;;;;;;0.50;0.45;;;25.60;70.40;;;;;;4953834;28;20045;-64
2022/06/19 02:53:27;;;;;;;1.35;1.08;;;25.50;70.60;;;;;;4953556;29;20510;-65
2022/06/19 02:55:53;;;;;;;0.10;0.10;;;25.40;71.00;;;;;;4953384;28;20559;-64
2022/06/19 02:58:19;;;;;;;0.68;0.32;;;25.30;70.90;;;;;;4954007;28;20101;-63
2022/06/19 03:00:49;;;;;;;0.63;0.22;;;25.40;71.00;;;;;;4954693;28;20070;-64
2022/06/19 03:03:35;;;;;;;3.03;0.95;;;25.30;70.80;;;;;;4953333;28;20039;-64
2022/06/19 03:06:02;;;;;;;0.17;0.17;;;25.30;70.50;;;;;;4953990;29;20035;-64
2022/06/19 03:08:28;;;;;;;20.17;1.00;;;25.30;70.70;;;;;;4954401;28;20031;-64
2022/06/19 03:10:54;;;;;;;1.70;1.30;;;25.10;71.10;;;;;;4954341;29;20023;-64
2022/06/19 03:13:21;;;;;;;0.10;0.10;;;24.90;71.50;;;;;;4954511;29;20061;-66
2022/06/19 03:15:57;;;;;;;4.85;0.73;;;24.70;72.20;;;;;;4966020;28;20037;-64
2022/06/19 03:18:23;;;;;;;2.47;1.35;;;24.60;72.60;;;;;;4973807;28;20030;-66
2022/06/19 03:20:49;;;;;;;0.90;0.57;;;24.60;72.60;;;;;;4973675;28;20457;-64
2022/06/19 03:23:14;;;;;;;0.35;0.35;;;24.50;72.80;;;;;;4973422;28;20034;-65
2022/06/19 03:25:40;;;;;;;0.45;0.45;;;24.50;72.90;;;;;;4973792;28;20513;-65
2022/06/19 03:28:06;;;;;;;2.35;1.08;;;24.60;72.90;;;;;;4973902;28;20045;-65
2022/06/19 03:30:31;;;;;;;2.45;1.00;;;24.60;72.60;;;;;;4972040;28;20077;-65
2022/06/19 03:32:57;;;;;;;4.65;2.03;;;24.60;72.80;;;;;;4973508;28;20065;-65
2022/06/19 03:35:23;;;;;;;0.00;0.00;;;24.80;73.20;;;;;;4973575;28;20033;-65
2022/06/19 03:37:49;;;;;;;2.05;1.38;;;24.90;72.20;;;;;;4987773;28;20034;-65
2022/06/19 03:40:14;;;;;;;0.70;0.52;;;24.90;72.10;;;;;;4972876;28;20101;-65
2022/06/19 03:42:40;;;;;;;1.65;1.00;;;25.00;71.90;;;;;;4973060;28;20506;-65
2022/06/19 03:45:07;;;;;;;4.30;1.10;;;25.00;71.80;;;;;;4972915;28;20023;-66
2022/06/19 03:47:33;;;;;;;0.85;0.57;;;25.00;71.80;;;;;;4973094;28;20035;-64
2022/06/19 03:50:01;;;;;;;1.23;1.00;;;25.10;71.70;;;;;;4987805;28;20089;-65
2022/06/19 03:52:27;;;;;;;0.50;0.40;;;25.10;71.80;;;;;;4973245;28;20514;-65
2022/06/19 03:54:53;;;;;;;1.17;0.93;;;25.00;72.00;;;;;;4973028;28;20035;-65
2022/06/19 03:57:19;;;;;;;1.23;0.93;;;25.00;72.10;;;;;;4972972;28;20031;-65
2022/06/19 03:59:44;;;;;;;17.10;0.80;;;25.00;72.10;;;;;;4972622;28;20035;-67
2022/06/19 04:02:11;;;;;;;3.28;2.70;;;25.10;72.30;;;;;;4972831;28;20038;-65
2022/06/19 04:04:42;;;;;;;1.25;0.68;;;25.00;72.50;;;;;;4987660;28;20038;-65
2022/06/19 04:07:13;;;;;;;0.00;0.00;;;25.00;72.30;;;;;;4972808;28;20105;-65
2022/06/19 04:09:39;;;;;;;0.70;0.60;;;25.00;72.60;;;;;;4970198;28;20494;-65
2022/06/19 04:12:05;;;;;;;0.15;0.15;;;24.80;72.70;;;;;;4971566;28;20077;-65
2022/06/19 04:14:31;;;;;;;2.92;1.25;;;24.80;73.30;;;;;;4970010;28;20031;-65
2022/06/19 04:16:57;;;;;;;0.15;0.15;;;24.70;73.40;;;;;;4953181;29;20035;-65
2022/06/19 04:19:23;;;;;;;0.40;0.30;;;24.70;73.70;;;;;;4953013;29;20028;-65
2022/06/19 04:21:49;;;;;;;1.83;0.93;;;24.70;73.30;;;;;;4951834;29;20035;-67
2022/06/19 04:24:18;;;;;;;1.23;0.77;;;24.80;74.00;;;;;;4951867;29;20031;-65
2022/06/19 04:26:44;;;;;;;0.45;0.30;;;24.80;73.60;;;;;;4952873;28;20027;-65
2022/06/19 04:29:12;;;;;;;0.55;0.55;;;24.90;73.50;;;;;;4967341;28;20403;-65
2022/06/19 04:31:37;;;;;;;3.38;2.08;;;24.70;74.40;;;;;;4953066;28;20411;-65
2022/06/19 04:34:03;;;;;;;8.20;0.68;;;24.90;74.20;;;;;;4984050;28;20043;-65
2022/06/19 04:36:30;;;;;;;0.00;0.00;;;24.90;74.00;;;;;;4952907;29;20106;-65
2022/06/19 04:38:57;;;;;;;18.98;1.35;;;24.90;74.20;;;;;;4952502;28;20459;-66
2022/06/19 04:41:28;;;;;;;3.33;1.95;;;24.90;74.20;;;;;;4984074;28;20386;-65
2022/06/19 04:43:56;;;;;;;3.85;2.28;;;25.10;73.50;;;;;;4951568;29;20040;-65
2022/06/19 04:46:23;;;;;;;1.02;0.90;;;25.10;73.90;;;;;;4952773;28;20459;-66
2022/06/19 04:48:49;;;;;;;2.75;1.65;;;25.20;73.80;;;;;;4983578;28;20024;-65
2022/06/19 04:51:16;;;;;;;0.52;0.38;;;25.20;73.40;;;;;;4983380;28;20031;-65
2022/06/19 04:53:42;;;;;;;1.45;1.10;;;25.30;73.10;;;;;;4983536;28;20044;-65
2022/06/19 04:56:11;;;;;;;0.68;0.47;;;25.40;73.30;;;;;;4952598;28;20039;-66
2022/06/19 04:58:38;;;;;;;0.00;0.00;;;25.60;73.00;;;;;;4983144;28;20027;-66
2022/06/19 05:01:19;;;;;;;1.65;1.25;;;25.70;72.40;;;;;;4983842;28;20118;-66
2022/06/19 05:03:45;;;;;;;0.30;0.30;;;25.60;72.70;;;;;;4982006;28;20028;-66
2022/06/19 05:06:10;;;;;;;0.20;0.20;;;25.60;73.30;;;;;;4983587;28;20043;-66
2022/06/19 05:08:36;;;;;;;1.35;0.77;;;25.60;73.50;;;;;;4950777;29;20395;-66
2022/06/19 05:11:02;;;;;;;1.55;0.30;;;25.60;73.00;;;;;;4983595;28;20027;-66
2022/06/19 05:13:28;;;;;;;0.43;0.43;;;25.60;73.60;;;;;;4952450;29;20054;-66
2022/06/19 05:16:10;;;;;;;3.20;1.60;;;25.80;73.20;;;;;;4965911;28;20035;-66
2022/06/19 05:18:36;;;;;;;3.42;0.60;;;25.90;72.70;;;;;;4971270;28;20066;-65
2022/06/19 05:21:04;;;;;;;3.67;1.75;;;26.20;71.40;;;;;;4986097;28;20054;-66
2022/06/19 05:23:32;;;;;;;1.23;1.13;;;26.30;71.00;;;;;;4972041;28;20121;-66
2022/06/19 05:26:09;;;;;;;0.30;0.17;;;26.40;71.10;;;;;;4986814;28;20081;-66
2022/06/19 05:28:36;;;;;;;9.15;2.72;;;26.40;71.40;;;;;;4985457;28;20125;-65
2022/06/19 05:31:03;;;;;;;0.52;0.45;;;26.60;71.00;;;;;;4971812;28;20109;-65
2022/06/19 05:33:30;;;;;;;0.28;0.28;;;26.60;70.80;;;;;;4986021;28;20031;-66
2022/06/19 05:35:57;;;;;;;0.75;0.68;;;26.70;70.20;;;;;;4970345;28;20031;-67
2022/06/19 05:38:23;;;;;;;1.85;1.25;;;26.80;70.00;;;;;;4971136;28;20027;-66
2022/06/19 05:40:51;;;;;;;0.00;0.00;;;26.90;69.70;;;;;;4971448;28;20055;-66
2022/06/19 05:43:19;;;;;;;1.75;0.80;;;27.00;69.80;;;;;;4986031;28;20027;-65
2022/06/19 05:45:59;;;;;;;0.47;0.40;;;27.10;69.70;;;;;;4986323;28;20035;-64
2022/06/19 05:48:27;;;;;;;6.80;2.25;;;27.10;69.80;;;;;;4971549;28;20026;-63
2022/06/19 05:51:08;;;;;;;0.82;0.57;;;27.20;69.40;;;;;;4971105;28;20031;-66
2022/06/19 05:53:39;;;;;;;2.78;1.30;;;27.20;69.40;;;;;;4971437;28;20497;-65
2022/06/19 05:56:06;;;;;;;0.32;0.32;;;27.40;70.20;;;;;;4986760;28;20054;-65
2022/06/19 05:58:33;;;;;;;13.20;1.90;;;27.40;69.50;;;;;;4971180;28;20118;-64
2022/06/19 06:00:59;;;;;;;0.00;0.00;;;27.50;69.60;;;;;;4982080;28;20110;-64
2022/06/19 06:03:25;;;;;;;1.95;1.15;;;27.50;69.40;;;;;;4951884;28;20038;-65
2022/06/19 06:05:52;;;;;;;14.43;1.33;;;27.50;68.90;;;;;;4952256;29;20031;-65
2022/06/19 06:08:19;;;;;;;0.30;0.30;;;27.50;69.60;;;;;;4950787;28;20051;-64
2022/06/19 06:10:46;;;;;;;0.80;0.73;;;27.60;69.20;;;;;;4950280;29;20027;-65
2022/06/19 06:13:13;;;;;;;0.10;0.10;;;27.70;69.00;;;;;;4950059;29;20038;-66
2022/06/19 06:15:39;;;;;;;7.28;1.13;;;27.70;69.30;;;;;;4950800;29;20463;-67
2022/06/19 06:18:05;;;;;;;12.05;1.95;;;27.70;68.90;;;;;;4951865;28;20031;-67
2022/06/19 06:20:31;;;;;;;5.68;1.75;;;27.70;69.30;;;;;;4951477;29;20035;-65
2022/06/19 06:22:57;;;;;;;3.40;1.10;;;27.80;69.50;;;;;;4951682;29;20396;-61
2022/06/19 06:25:23;;;;;;;1.85;0.82;;;27.90;69.30;;;;;;4950431;29;20030;-63
2022/06/19 06:27:50;;;;;;;0.65;0.45;;;27.90;69.40;;;;;;4950280;28;20031;-62
2022/06/19 06:30:16;;;;;;;0.65;0.65;;;27.90;69.70;;;;;;4951364;29;20480;-63
2022/06/19 06:32:42;;;;;;;0.50;0.47;;;27.90;69.80;;;;;;4952362;28;20035;-62
2022/06/19 06:35:09;;;;;;;0.75;0.35;;;27.90;70.70;;;;;;4955557;29;20402;-62
2022/06/19 06:37:36;;;;;;;2.20;1.02;;;28.00;70.80;;;;;;4955021;28;20070;-63
2022/06/19 06:40:12;;;;;;;0.40;0.35;;;28.10;69.90;;;;;;4955107;29;20387;-66
2022/06/19 06:42:37;;;;;;;7.68;1.65;;;28.00;70.40;;;;;;4953224;28;20085;-68
2022/06/19 06:45:04;;;;;;;1.48;0.82;;;28.20;69.90;;;;;;4965011;28;20471;-66
2022/06/19 06:47:30;;;;;;;0.30;0.30;;;28.20;70.00;;;;;;4954278;28;20435;-67
2022/06/19 06:49:55;;;;;;;0.35;0.35;;;28.40;70.60;;;;;;4954490;28;20035;-66
2022/06/19 06:52:21;;;;;;;1.42;0.98;;;28.50;69.90;;;;;;4954440;28;20037;-67
2022/06/19 06:54:47;;;;;;;8.38;1.85;;;28.60;69.50;;;;;;4969540;28;20042;-73
2022/06/19 06:57:13;;;;;;;8.48;3.05;;;28.60;69.70;;;;;;4954661;28;20443;-76
2022/06/19 06:59:38;;;;;;;1.48;1.27;;;28.60;69.60;;;;;;4954492;29;20027;-73
2022/06/19 07:02:05;;;;;;;0.30;0.30;;;28.70;69.80;;;;;;4954684;29;20035;-73
2022/06/19 07:04:31;;;;;;;6.13;1.40;;;28.80;69.80;;;;;;4953165;29;20051;-73
2022/06/19 07:06:57;;;;;;;0.77;0.25;;;28.90;69.30;;;;;;4953552;28;20086;-72
2022/06/19 07:09:23;;;;;;;1.77;1.65;;;28.90;69.00;;;;;;4954321;29;20479;-70
2022/06/19 07:11:49;;;;;;;0.15;0.15;;;28.90;69.10;;;;;;4957927;28;20027;-71
2022/06/19 07:14:18;;;;;;;0.45;0.45;;;29.10;69.30;;;;;;4973581;28;20039;-68
2022/06/19 07:16:43;;;;;;;4.25;1.13;;;29.10;69.30;;;;;;4973487;28;20023;-69
2022/06/19 07:19:11;;;;;;;1.45;1.33;;;29.10;69.50;;;;;;4972887;28;20142;-68
2022/06/19 07:21:37;;;;;;;7.45;0.60;;;29.10;69.40;;;;;;4972250;28;20034;-64
2022/06/19 07:24:04;;;;;;;1.67;1.33;;;29.20;69.70;;;;;;4956378;28;20058;-64
2022/06/19 07:26:31;;;;;;;1.38;1.27;;;29.30;69.60;;;;;;4969036;28;20353;-64
2022/06/19 07:28:57;;;;;;;1.80;0.85;;;29.40;70.00;;;;;;4973136;28;20609;-70
2022/06/19 07:31:23;;;;;;;1.55;0.63;;;29.40;69.80;;;;;;4988213;28;20130;-70
2022/06/19 07:33:49;;;;;;;0.82;0.55;;;29.40;70.20;;;;;;4988137;28;20035;-71
2022/06/19 07:36:21;;;;;;;0.75;0.65;;;29.50;70.70;;;;;;4988076;28;20513;-70
2022/06/19 07:38:47;;;;;;;0.50;0.50;;;29.60;70.80;;;;;;4972879;28;20090;-71
2022/06/19 07:41:13;;;;;;;0.35;0.28;;;29.50;70.50;;;;;;4972911;28;20050;-70
2022/06/19 07:43:39;;;;;;;1.35;0.65;;;29.60;70.30;;;;;;4972644;28;20027;-71
2022/06/19 07:46:06;;;;;;;0.80;0.65;;;29.70;70.60;;;;;;4973183;28;20657;-72
2022/06/19 07:51:16;;;;;;;0.93;0.90;;;30.00;70.10;;;;;;4972858;28;20365;-70
2022/06/19 07:53:42;;;;;;;1.10;1.02;;;30.00;70.00;;;;;;4971969;28;20094;-69
2022/06/19 07:56:08;;;;;;;5.15;1.13;;;30.10;69.80;;;;;;4971644;28;20077;-69
2022/06/19 07:58:35;;;;;;;0.70;0.65;;;30.10;69.40;;;;;;4972308;28;20019;-70
2022/06/19 08:01:01;;;;;;;0.40;0.40;;;30.20;69.20;;;;;;4955496;28;20031;-69
2022/06/19 08:03:27;;;;;;;4.03;1.00;;;30.20;68.30;;;;;;4972220;28;20026;-68
2022/06/19 08:05:53;;;;;;;0.75;0.55;;;30.20;68.80;;;;;;4955380;28;20042;-69
2022/06/19 08:08:24;;;;;;;5.00;1.08;;;30.50;68.70;;;;;;4972509;28;20030;-68
2022/06/19 08:10:53;;;;;;;0.38;0.38;;;30.50;67.60;;;;;;4956396;28;20080;-69
2022/06/19 08:13:21;;;;;;;0.60;0.43;;;30.60;67.60;;;;;;4972330;28;20027;-71
2022/06/19 08:15:49;;;;;;;1.75;1.13;;;30.50;68.10;;;;;;4971707;28;20035;-71
2022/06/19 08:18:15;;;;;;;0.45;0.40;;;30.60;67.80;;;;;;4971453;28;20439;-69
2022/06/19 08:20:41;;;;;;;8.65;1.65;;;30.70;67.80;;;;;;4972119;28;20029;-70
2022/06/19 08:23:07;;;;;;;1.55;0.98;;;30.80;66.70;;;;;;4971038;28;20030;-69
2022/06/19 08:25:33;;;;;;;0.68;0.50;;;30.80;66.50;;;;;;4971324;28;20475;-68
2022/06/19 08:28:00;;;;;;;1.73;1.00;;;30.80;66.80;;;;;;4970965;28;20110;-69
2022/06/19 08:30:34;;;;;;;2.25;0.63;;;31.00;66.70;;;;;;4971914;28;20077;-69
2022/06/19 08:33:00;;;;;;;0.75;0.63;;;31.10;65.60;;;;;;4971107;28;20062;-70
2022/06/19 08:35:28;;;;;;;0.85;0.77;;;31.00;65.60;;;;;;4972190;28;20073;-68
2022/06/19 08:38:02;;;;;;;1.33;1.23;;;31.00;65.60;;;;;;4989086;23;20049;-69
2022/06/19 08:41:04;;;;;;;2.42;1.15;;;31.00;65.70;;;;;;4984515;28;20026;-71
2022/06/19 08:43:48;;;;;;;0.88;0.80;;;31.20;65.10;;;;;;4992821;28;20042;-71
2022/06/19 08:46:31;;;;;;;1.33;0.80;;;31.20;66.00;;;;;;4991553;28;20038;-71
2022/06/19 08:49:16;;;;;;;0.63;0.57;;;31.30;65.60;;;;;;4971396;28;20488;-71
2022/06/19 08:51:51;;;;;;;6.47;3.03;;;31.40;65.50;;;;;;4971084;28;20408;-71
2022/06/19 08:55:13;;;;;;;2.40;1.60;;;31.60;64.40;;;;;;4971440;28;20395;-72
2022/06/19 08:58:01;;;;;;;1.02;0.50;;;31.70;65.30;;;;;;4971661;28;20035;-72
2022/06/19 09:01:20;;;;;;;0.85;0.50;;;31.70;63.80;;;;;;4971533;28;20023;-72
2022/06/19 09:07:17;;;;;;;1.35;0.45;;;31.90;64.60;;;;;;4971620;28;20027;-73
2022/06/19 09:10:11;;;;;;;12.65;1.38;;;31.90;64.50;;;;;;4968883;28;20105;-74
2022/06/19 09:13:25;;;;;;;27.70;1.20;;;32.00;64.40;;;;;;4970890;28;20088;-74
2022/06/19 09:16:16;;;;;;;1.38;1.17;;;32.00;63.90;;;;;;4973864;28;20101;-72
2022/06/19 09:19:00;;;;;;;18.27;1.42;;;32.20;64.00;;;;;;4952565;28;20496;-74
2022/06/19 09:21:47;;;;;;;0.85;0.73;;;32.30;63.90;;;;;;4978403;28;20023;-75
2022/06/19 09:24:36;;;;;;;1.27;0.75;;;32.40;61.60;;;;;;4988052;28;20033;-75
2022/06/19 09:27:02;;;;;;;5.32;2.47;;;32.50;61.30;;;;;;4981308;28;20023;-75
2022/06/19 09:29:53;;;;;;;0.47;0.40;;;32.50;60.90;;;;;;4969453;28;20483;-75
2022/06/19 09:32:41;;;;;;;1.85;1.20;;;32.40;61.40;;;;;;4970304;28;20043;-74
2022/06/19 09:35:31;;;;;;;0.55;0.55;;;32.60;60.60;;;;;;4970988;28;20517;-75
2022/06/19 09:38:13;;;;;;;0.45;0.30;;;32.80;60.40;;;;;;4969777;28;20042;-74
2022/06/19 09:40:45;;;;;;;5.43;1.27;;;32.80;60.00;;;;;;4969691;28;20038;-68
2022/06/19 09:43:22;;;;;;;0.47;0.45;;;32.80;60.10;;;;;;4984109;28;20038;-67
2022/06/19 09:46:01;;;;;;;2.28;1.05;;;32.80;59.90;;;;;;4989059;28;20574;-67
2022/06/19 09:48:55;;;;;;;0.85;0.45;;;32.70;60.30;;;;;;4989384;28;20031;-68
2022/06/19 09:51:49;;;;;;;0.40;0.30;;;32.80;60.10;;;;;;4990402;28;20035;-67
2022/06/19 09:54:35;;;;;;;1.25;0.70;;;33.00;60.10;;;;;;4989121;28;20057;-69
2022/06/19 09:57:15;;;;;;;0.10;0.08;;;33.20;59.00;;;;;;4989043;28;20042;-68
2022/06/19 10:00:05;;;;;;;19.38;2.30;;;33.00;59.40;;;;;;4988974;28;20038;-69
2022/06/19 10:02:42;;;;;;;;;;;32.80;59.90;;;;;;4990431;28;20041;-69
2022/06/19 10:05:43;;;;;;;1.10;1.00;;;33.00;60.10;;;;;;4970937;28;19913;-69
2022/06/19 10:08:21;;;;;;;0.38;0.38;;;33.00;59.90;;;;;;4973113;28;20129;-70
2022/06/19 10:11:05;;;;;;;0.60;0.55;;;33.20;59.60;;;;;;4972649;28;20038;-69
2022/06/19 10:13:49;;;;;;;1.08;0.98;;;33.20;59.40;;;;;;4990940;28;20030;-71
2022/06/19 10:16:28;;;;;;;0.50;0.35;;;33.20;59.40;;;;;;4992982;28;20517;-72
2022/06/19 10:18:56;;;;;;;1.13;0.47;;;33.30;59.90;;;;;;4993880;28;20092;-70
2022/06/19 10:25:11;;;;;;;1.90;1.55;;;33.50;59.40;;;;;;4993883;28;20113;-67
2022/06/19 10:28:11;;;;;;;1.33;0.80;;;33.70;59.30;;;;;;4992930;28;20033;-67
2022/06/19 10:31:09;;;;;;;0.40;0.40;;;33.90;59.80;;;;;;4978422;28;20041;-67
2022/06/19 10:34:18;;;;;;;4.20;0.57;;;33.70;58.60;;;;;;4973399;28;20449;-67
2022/06/19 10:37:10;;;;;;;0.85;0.73;;;34.00;58.70;;;;;;4973835;28;20063;-66
2022/06/19 10:40:34;;;;;;;8.02;2.03;;;34.10;59.20;;;;;;4972906;28;20102;-66
2022/06/19 10:43:19;;;;;;;0.77;0.60;;;34.20;58.70;;;;;;4986534;28;20030;-66
2022/06/19 10:45:53;;;;;;;11.02;2.45;;;34.30;58.90;;;;;;4993503;28;20038;-66
2022/06/19 10:48:58;;;;;;;1.85;1.10;;;34.50;58.50;;;;;;4992577;28;20027;-66
2022/06/19 10:51:35;;;;;;;3.15;0.63;;;34.40;58.40;;;;;;4992600;28;20419;-66
2022/06/19 10:54:41;;;;;;;4.50;0.63;;;34.30;58.10;;;;;;4993817;28;20482;-65
2022/06/19 10:57:10;;;;;;;2.75;1.08;;;34.20;58.40;;;;;;4993626;28;20639;-65
2022/06/19 10:59:36;;;;;;;1.25;1.10;;;34.40;58.90;;;;;;4991996;28;20031;-65
2022/06/19 11:05:38;;;;;;;1.60;0.52;;;34.50;57.60;;;;;;4992504;28;20065;-65
2022/06/19 11:08:04;;;;;;;1.40;0.60;;;34.40;58.20;;;;;;4992139;28;20038;-66
2022/06/19 11:10:48;;;;;;;1.95;1.38;;;34.70;59.10;;;;;;4992996;28;20053;-65
2022/06/19 11:13:14;;;;;;;3.50;1.50;;;34.80;58.10;;;;;;4977351;28;20058;-66
2022/06/19 11:15:45;;;;;;;1.45;1.00;;;34.80;58.10;;;;;;4988634;28;20042;-67
2022/06/19 11:18:22;;;;;;;3.40;1.10;;;34.70;58.00;;;;;;4987202;28;20035;-66
2022/06/19 11:21:04;;;;;;;0.50;0.50;;;34.80;58.20;;;;;;4988429;28;20117;-65
2022/06/19 11:23:37;;;;;;;1.17;0.93;;;34.70;57.70;;;;;;4988119;28;20038;-65
2022/06/19 11:26:12;;;;;;;3.75;0.45;;;35.20;57.80;;;;;;4973618;28;20030;-65
2022/06/19 11:28:55;;;;;;;2.97;1.50;;;35.00;56.90;;;;;;4972085;28;20069;-65
2022/06/19 11:31:31;;;;;;;1.25;0.40;;;35.10;57.60;;;;;;4973531;28;20423;-66
2022/06/19 11:37:32;;;;;;;1.90;1.35;;;35.30;57.50;;;;;;4973393;28;20101;-67
2022/06/19 11:39:58;;;;;;;6.95;1.98;;;35.50;57.20;;;;;;4972929;28;20064;-68
2022/06/19 11:42:48;;;;;;;5.40;1.27;;;35.40;57.00;;;;;;4973372;28;20019;-67
2022/06/19 11:45:14;;;;;;;;;;;35.30;56.70;;;;;;4986916;28;20030;-67
2022/06/19 11:48:00;;;;;;;1.88;0.80;;;35.30;57.20;;;;;;4972994;28;19914;-67
2022/06/19 11:50:32;;;;;;;0.77;0.77;;;35.10;57.30;;;;;;4972684;28;20026;-67
2022/06/19 11:53:06;;;;;;;2.72;1.40;;;35.20;57.60;;;;;;4973206;28;20034;-67
2022/06/19 11:55:49;;;;;;;4.80;1.75;;;35.40;57.10;;;;;;4973115;28;20026;-68
2022/06/19 11:58:17;;;;;;;3.17;1.55;;;35.50;57.40;;;;;;4973009;28;20035;-67
2022/06/19 12:00:45;;;;;;;0.65;0.65;;;35.50;57.70;;;;;;4972816;28;20046;-67
2022/06/19 12:03:31;;;;;;;0.30;0.25;;;35.80;56.90;;;;;;4972555;28;20035;-67
2022/06/19 12:06:05;;;;;;;0.65;0.65;;;35.90;57.00;;;;;;4971783;28;20034;-68
2022/06/19 12:08:39;;;;;;;0.75;0.75;;;35.80;56.30;;;;;;4972421;28;20043;-67
2022/06/19 12:11:08;;;;;;;0.57;0.57;;;35.70;56.60;;;;;;4971353;28;20502;-68
2022/06/19 12:13:42;;;;;;;0.32;0.30;;;35.70;56.40;;;;;;4972660;28;20066;-68
2022/06/19 12:16:24;;;;;;;0.98;0.88;;;35.80;56.00;;;;;;4987260;28;20031;-69
2022/06/19 12:18:51;;;;;;;0.63;0.63;;;35.90;56.70;;;;;;4972257;28;20026;-67
2022/06/19 12:21:32;;;;;;;0.60;0.57;;;35.80;56.60;;;;;;4972471;28;20023;-68
2022/06/19 12:24:17;;;;;;;0.55;0.45;;;35.90;56.90;;;;;;4987183;28;20042;-67
2022/06/19 12:26:54;;;;;;;11.65;2.55;;;35.90;56.60;;;;;;4971352;28;20093;-68
2022/06/19 12:29:44;;;;;;;1.55;1.25;;;35.90;55.80;;;;;;4985924;28;20042;-68
2022/06/19 12:32:46;;;;;;;0.98;0.70;;;35.90;56.10;;;;;;4986211;28;20042;-67
2022/06/19 12:35:43;;;;;;;0.80;0.47;;;35.90;56.80;;;;;;4970685;28;20403;-67
2022/06/19 12:38:15;;;;;;;0.88;0.68;;;36.20;56.60;;;;;;4970682;28;20041;-67
2022/06/19 12:41:07;;;;;;;0.30;0.30;;;36.60;56.20;;;;;;4970551;28;20019;-67
2022/06/19 12:44:07;;;;;;;1.23;1.10;;;36.40;56.10;;;;;;4952347;28;20054;-67
2022/06/19 12:47:06;;;;;;;1.52;0.95;;;36.60;55.40;;;;;;4952736;28;20110;-67
2022/06/19 12:49:57;;;;;;;0.90;0.45;;;36.40;56.00;;;;;;4952944;28;20039;-67
2022/06/19 12:52:47;;;;;;;1.17;0.85;;;36.50;55.70;;;;;;4951902;29;20034;-67
2022/06/19 12:55:49;;;;;;;0.38;0.30;;;36.40;55.40;;;;;;4951752;29;20031;-67
2022/06/19 12:58:34;;;;;;;5.80;0.98;;;36.50;56.20;;;;;;4952439;28;20060;-67
2022/06/19 13:01:10;;;;;;;4.35;0.85;;;36.70;55.70;;;;;;4952671;28;20571;-65
2022/06/19 13:03:48;;;;;;;1.17;0.73;;;36.40;55.70;;;;;;4952722;28;20027;-65
2022/06/19 13:07:17;;;;;;;3.47;0.93;;;36.50;56.40;;;;;;4952830;28;20035;-67
2022/06/19 13:09:51;;;;;;;1.23;0.95;;;36.90;55.10;;;;;;4980040;28;20070;-66
2022/06/19 13:12:44;;;;;;;1.02;0.60;;;37.10;55.00;;;;;;4953857;28;20071;-67
2022/06/19 13:15:31;;;;;;;0.55;0.30;;;36.80;54.60;;;;;;4969444;28;20050;-67
2022/06/19 13:18:17;;;;;;;1.20;0.65;;;37.00;54.10;;;;;;4952961;28;20045;-66
2022/06/19 13:20:56;;;;;;;1.00;0.55;;;37.00;54.30;;;;;;4953392;28;20090;-67
2022/06/19 13:24:09;;;;;;;3.65;1.50;;;37.00;53.70;;;;;;4968812;28;20027;-66
2022/06/19 13:30:09;;;;;;;1.17;0.90;;;37.30;53.10;;;;;;4968704;28;20027;-67
2022/06/19 13:32:44;;;;;;;1.05;0.95;;;37.40;53.20;;;;;;4954059;28;20034;-65
2022/06/19 13:35:10;;;;;;;4.18;2.05;;;37.70;52.90;;;;;;4968962;28;20038;-66
2022/06/19 13:37:46;;;;;;;6.60;1.48;;;37.60;52.80;;;;;;4968972;28;20093;-66
2022/06/19 13:40:51;;;;;;;0.55;0.50;;;38.00;51.70;;;;;;4962416;28;20047;-66
2022/06/19 13:43:48;;;;;;;0.25;0.15;;;38.50;52.10;;;;;;4970257;28;20114;-66
2022/06/19 13:46:37;;;;;;;22.23;1.17;;;38.90;51.60;;;;;;4975529;28;20035;-65